sensor_id;sensor_type;location;lat;lon;timestamp;P1;durP1;ratioP1;P2;durP2;ratioP2
46931;SDS011;32670;51.464;11.964;2022-09-13T00:00:47;4.60;;;3.77;;
46931;SDS011;32670;51.464;11.964;2022-09-13T00:03:14;5.10;;;4.03;;
46931;SDS011;32670;51.464;11.964;2022-09-13T00:05:39;8.73;;;4.53;;
46931;SDS011;32670;51.464;11.964;2022-09-13T00:08:05;5.70;;;4.40;;
46931;SDS011;32670;51.464;11.964;2022-09-13T00:10:35;5.80;;;4.43;;
46931;SDS011;32670;51.464;11.964;2022-09-13T00:13:02;6.20;;;4.10;;
46931;SDS011;32670;51.464;11.964;2022-09-13T00:15:28;4.97;;;4.57;;
46931;SDS011;32670;51.464;11.964;2022-09-13T00:17:54;4.87;;;4.17;;
46931;SDS011;32670;51.464;11.964;2022-09-13T00:20:20;6.33;;;4.27;;
46931;SDS011;32670;51.464;11.964;2022-09-13T00:22:45;5.10;;;4.63;;
46931;SDS011;32670;51.464;11.964;2022-09-13T00:25:11;6.70;;;4.33;;
46931;SDS011;32670;51.464;11.964;2022-09-13T00:27:36;5.03;;;4.50;;
46931;SDS011;32670;51.464;11.964;2022-09-13T00:30:02;5.07;;;4.57;;
46931;SDS011;32670;51.464;11.964;2022-09-13T00:32:29;4.40;;;4.00;;
46931;SDS011;32670;51.464;11.964;2022-09-13T00:34:55;4.97;;;4.20;;
46931;SDS011;32670;51.464;11.964;2022-09-13T00:37:20;4.83;;;4.37;;
46931;SDS011;32670;51.464;11.964;2022-09-13T00:39:46;4.73;;;4.20;;
46931;SDS011;32670;51.464;11.964;2022-09-13T00:42:12;5.00;;;4.17;;
46931;SDS011;32670;51.464;11.964;2022-09-13T00:50:34;5.07;;;4.43;;
46931;SDS011;32670;51.464;11.964;2022-09-13T00:53:04;4.67;;;4.30;;
46931;SDS011;32670;51.464;11.964;2022-09-13T00:58:09;4.50;;;3.93;;
46931;SDS011;32670;51.464;11.964;2022-09-13T01:00:37;4.73;;;4.33;;
46931;SDS011;32670;51.464;11.964;2022-09-13T01:03:06;6.23;;;3.63;;
46931;SDS011;32670;51.464;11.964;2022-09-13T01:05:37;4.37;;;3.97;;
46931;SDS011;32670;51.464;11.964;2022-09-13T01:08:07;4.73;;;4.33;;
46931;SDS011;32670;51.464;11.964;2022-09-13T01:10:38;4.73;;;4.30;;
46931;SDS011;32670;51.464;11.964;2022-09-13T01:13:07;6.37;;;4.13;;
46931;SDS011;32670;51.464;11.964;2022-09-13T01:15:39;4.23;;;3.90;;
46931;SDS011;32670;51.464;11.964;2022-09-13T01:18:05;4.53;;;4.20;;
46931;SDS011;32670;51.464;11.964;2022-09-13T01:24:09;6.53;;;4.70;;
46931;SDS011;32670;51.464;11.964;2022-09-13T01:30:05;4.70;;;4.27;;
46931;SDS011;32670;51.464;11.964;2022-09-13T01:33:00;4.63;;;4.23;;
46931;SDS011;32670;51.464;11.964;2022-09-13T01:35:38;6.60;;;4.80;;
46931;SDS011;32670;51.464;11.964;2022-09-13T01:38:15;5.00;;;4.33;;
46931;SDS011;32670;51.464;11.964;2022-09-13T01:40:58;7.00;;;4.40;;
46931;SDS011;32670;51.464;11.964;2022-09-13T01:43:55;5.40;;;4.90;;
46931;SDS011;32670;51.464;11.964;2022-09-13T01:46:29;6.87;;;4.53;;
46931;SDS011;32670;51.464;11.964;2022-09-13T01:49:19;6.00;;;4.97;;
46931;SDS011;32670;51.464;11.964;2022-09-13T01:51:53;5.73;;;5.07;;
46931;SDS011;32670;51.464;11.964;2022-09-13T01:54:40;5.97;;;4.83;;
46931;SDS011;32670;51.464;11.964;2022-09-13T01:57:24;5.37;;;4.90;;
46931;SDS011;32670;51.464;11.964;2022-09-13T02:00:00;5.20;;;4.47;;
46931;SDS011;32670;51.464;11.964;2022-09-13T02:05:03;5.00;;;4.50;;
46931;SDS011;32670;51.464;11.964;2022-09-13T02:07:35;5.30;;;4.83;;
46931;SDS011;32670;51.464;11.964;2022-09-13T02:10:25;5.07;;;4.67;;
46931;SDS011;32670;51.464;11.964;2022-09-13T02:12:57;5.93;;;4.57;;
46931;SDS011;32670;51.464;11.964;2022-09-13T02:15:26;5.47;;;4.97;;
46931;SDS011;32670;51.464;11.964;2022-09-13T02:18:09;6.37;;;5.03;;
46931;SDS011;32670;51.464;11.964;2022-09-13T02:20:40;5.20;;;4.70;;
46931;SDS011;32670;51.464;11.964;2022-09-13T02:23:11;5.20;;;4.70;;
46931;SDS011;32670;51.464;11.964;2022-09-13T02:25:40;5.00;;;4.57;;
46931;SDS011;32670;51.464;11.964;2022-09-13T02:28:09;5.70;;;5.10;;
46931;SDS011;32670;51.464;11.964;2022-09-13T02:30:40;4.97;;;4.57;;
46931;SDS011;32670;51.464;11.964;2022-09-13T02:33:11;5.07;;;4.67;;
46931;SDS011;32670;51.464;11.964;2022-09-13T02:38:20;5.70;;;5.03;;
46931;SDS011;32670;51.464;11.964;2022-09-13T02:40:52;5.97;;;5.47;;
46931;SDS011;32670;51.464;11.964;2022-09-13T02:43:25;7.03;;;5.07;;
46931;SDS011;32670;51.464;11.964;2022-09-13T02:45:59;5.57;;;5.07;;
46931;SDS011;32670;51.464;11.964;2022-09-13T02:48:39;5.87;;;5.33;;
46931;SDS011;32670;51.464;11.964;2022-09-13T02:51:18;5.90;;;5.37;;
46931;SDS011;32670;51.464;11.964;2022-09-13T02:54:00;5.93;;;5.43;;
46931;SDS011;32670;51.464;11.964;2022-09-13T02:56:39;6.10;;;5.50;;
46931;SDS011;32670;51.464;11.964;2022-09-13T02:59:28;5.63;;;5.00;;
46931;SDS011;32670;51.464;11.964;2022-09-13T03:01:57;7.23;;;5.53;;
46931;SDS011;32670;51.464;11.964;2022-09-13T03:04:24;5.33;;;4.90;;
46931;SDS011;32670;51.464;11.964;2022-09-13T03:06:50;5.93;;;5.10;;
46931;SDS011;32670;51.464;11.964;2022-09-13T03:09:16;5.60;;;5.00;;
46931;SDS011;32670;51.464;11.964;2022-09-13T03:11:49;5.50;;;5.00;;
46931;SDS011;32670;51.464;11.964;2022-09-13T03:14:33;5.43;;;4.93;;
46931;SDS011;32670;51.464;11.964;2022-09-13T03:17:14;6.53;;;4.60;;
46931;SDS011;32670;51.464;11.964;2022-09-13T03:22:47;5.17;;;4.67;;
46931;SDS011;32670;51.464;11.964;2022-09-13T03:25:37;5.10;;;4.70;;
46931;SDS011;32670;51.464;11.964;2022-09-13T03:28:33;5.23;;;4.70;;
46931;SDS011;32670;51.464;11.964;2022-09-13T03:31:18;5.67;;;4.90;;
46931;SDS011;32670;51.464;11.964;2022-09-13T03:33:56;5.33;;;4.83;;
46931;SDS011;32670;51.464;11.964;2022-09-13T03:36:41;5.30;;;4.80;;
46931;SDS011;32670;51.464;11.964;2022-09-13T03:39:12;5.23;;;4.73;;
46931;SDS011;32670;51.464;11.964;2022-09-13T03:41:50;5.90;;;5.30;;
46931;SDS011;32670;51.464;11.964;2022-09-13T03:44:20;5.30;;;4.90;;
46931;SDS011;32670;51.464;11.964;2022-09-13T03:46:48;5.60;;;4.90;;
46931;SDS011;32670;51.464;11.964;2022-09-13T03:49:20;5.50;;;5.00;;
46931;SDS011;32670;51.464;11.964;2022-09-13T03:51:48;5.50;;;5.00;;
46931;SDS011;32670;51.464;11.964;2022-09-13T03:54:16;5.00;;;4.60;;
46931;SDS011;32670;51.464;11.964;2022-09-13T03:59:34;5.60;;;5.10;;
46931;SDS011;32670;51.464;11.964;2022-09-13T04:02:02;6.17;;;5.67;;
46931;SDS011;32670;51.464;11.964;2022-09-13T04:04:28;8.40;;;5.60;;
46931;SDS011;32670;51.464;11.964;2022-09-13T04:06:53;6.47;;;5.87;;
46931;SDS011;32670;51.464;11.964;2022-09-13T04:09:20;7.70;;;7.00;;
46931;SDS011;32670;51.464;11.964;2022-09-13T04:11:46;7.47;;;6.77;;
46931;SDS011;32670;51.464;11.964;2022-09-13T04:14:12;7.97;;;7.27;;
46931;SDS011;32670;51.464;11.964;2022-09-13T04:16:40;8.00;;;7.30;;
46931;SDS011;32670;51.464;11.964;2022-09-13T04:19:05;9.37;;;7.17;;
46931;SDS011;32670;51.464;11.964;2022-09-13T04:21:31;6.80;;;6.20;;
46931;SDS011;32670;51.464;11.964;2022-09-13T04:23:56;5.83;;;5.33;;
46931;SDS011;32670;51.464;11.964;2022-09-13T04:26:22;5.23;;;4.73;;
46931;SDS011;32670;51.464;11.964;2022-09-13T04:28:47;4.67;;;4.07;;
46931;SDS011;32670;51.464;11.964;2022-09-13T04:31:13;4.03;;;3.50;;
46931;SDS011;32670;51.464;11.964;2022-09-13T04:33:38;3.70;;;3.40;;
46931;SDS011;32670;51.464;11.964;2022-09-13T04:36:05;3.30;;;3.00;;
46931;SDS011;32670;51.464;11.964;2022-09-13T04:38:30;3.60;;;3.30;;
46931;SDS011;32670;51.464;11.964;2022-09-13T04:40:56;3.20;;;3.00;;
46931;SDS011;32670;51.464;11.964;2022-09-13T04:43:22;4.03;;;3.30;;
46931;SDS011;32670;51.464;11.964;2022-09-13T04:45:48;3.20;;;2.90;;
46931;SDS011;32670;51.464;11.964;2022-09-13T04:48:14;3.27;;;3.00;;
46931;SDS011;32670;51.464;11.964;2022-09-13T04:50:40;3.17;;;2.90;;
46931;SDS011;32670;51.464;11.964;2022-09-13T04:53:05;3.23;;;2.97;;
46931;SDS011;32670;51.464;11.964;2022-09-13T04:55:30;2.83;;;2.63;;
46931;SDS011;32670;51.464;11.964;2022-09-13T04:57:56;2.80;;;2.60;;
46931;SDS011;32670;51.464;11.964;2022-09-13T05:00:21;2.90;;;2.70;;
46931;SDS011;32670;51.464;11.964;2022-09-13T05:02:48;2.37;;;2.27;;
46931;SDS011;32670;51.464;11.964;2022-09-13T05:05:13;2.40;;;2.20;;
46931;SDS011;32670;51.464;11.964;2022-09-13T05:07:39;2.70;;;2.50;;
46931;SDS011;32670;51.464;11.964;2022-09-13T05:10:04;2.40;;;2.20;;
46931;SDS011;32670;51.464;11.964;2022-09-13T05:12:30;3.23;;;2.70;;
46931;SDS011;32670;51.464;11.964;2022-09-13T05:14:56;2.90;;;2.70;;
46931;SDS011;32670;51.464;11.964;2022-09-13T05:17:21;2.60;;;2.40;;
46931;SDS011;32670;51.464;11.964;2022-09-13T05:19:47;2.63;;;2.43;;
46931;SDS011;32670;51.464;11.964;2022-09-13T05:22:13;2.60;;;2.30;;
46931;SDS011;32670;51.464;11.964;2022-09-13T05:24:38;2.67;;;2.30;;
46931;SDS011;32670;51.464;11.964;2022-09-13T05:27:04;2.37;;;2.17;;
46931;SDS011;32670;51.464;11.964;2022-09-13T05:29:29;3.87;;;2.57;;
46931;SDS011;32670;51.464;11.964;2022-09-13T05:31:55;4.43;;;3.70;;
46931;SDS011;32670;51.464;11.964;2022-09-13T05:34:20;4.97;;;3.90;;
46931;SDS011;32670;51.464;11.964;2022-09-13T05:36:46;8.33;;;4.87;;
46931;SDS011;32670;51.464;11.964;2022-09-13T05:39:15;4.00;;;3.70;;
46931;SDS011;32670;51.464;11.964;2022-09-13T05:41:45;4.10;;;3.73;;
46931;SDS011;32670;51.464;11.964;2022-09-13T05:44:11;6.77;;;5.97;;
46931;SDS011;32670;51.464;11.964;2022-09-13T05:46:37;8.90;;;5.50;;
46931;SDS011;32670;51.464;11.964;2022-09-13T05:49:02;6.63;;;6.00;;
46931;SDS011;32670;51.464;11.964;2022-09-13T05:51:28;7.27;;;5.27;;
46931;SDS011;32670;51.464;11.964;2022-09-13T05:53:53;5.97;;;5.47;;
46931;SDS011;32670;51.464;11.964;2022-09-13T05:56:23;5.97;;;5.47;;
46931;SDS011;32670;51.464;11.964;2022-09-13T05:58:50;7.77;;;5.23;;
46931;SDS011;32670;51.464;11.964;2022-09-13T06:01:17;5.40;;;4.90;;
46931;SDS011;32670;51.464;11.964;2022-09-13T06:03:48;5.83;;;4.80;;
46931;SDS011;32670;51.464;11.964;2022-09-13T06:06:14;5.50;;;4.87;;
46931;SDS011;32670;51.464;11.964;2022-09-13T06:08:40;8.07;;;4.93;;
46931;SDS011;32670;51.464;11.964;2022-09-13T06:11:07;7.73;;;5.47;;
46931;SDS011;32670;51.464;11.964;2022-09-13T06:13:35;6.27;;;5.40;;
46931;SDS011;32670;51.464;11.964;2022-09-13T06:16:02;6.13;;;5.53;;
46931;SDS011;32670;51.464;11.964;2022-09-13T06:18:29;6.33;;;5.73;;
46931;SDS011;32670;51.464;11.964;2022-09-13T06:21:02;7.70;;;6.77;;
46931;SDS011;32670;51.464;11.964;2022-09-13T06:23:30;11.37;;;8.07;;
46931;SDS011;32670;51.464;11.964;2022-09-13T06:28:34;6.77;;;6.17;;
46931;SDS011;32670;51.464;11.964;2022-09-13T06:31:07;8.13;;;6.13;;
46931;SDS011;32670;51.464;11.964;2022-09-13T06:33:35;6.87;;;6.23;;
46931;SDS011;32670;51.464;11.964;2022-09-13T06:36:03;8.43;;;7.57;;
46931;SDS011;32670;51.464;11.964;2022-09-13T06:38:33;8.60;;;7.80;;
46931;SDS011;32670;51.464;11.964;2022-09-13T06:41:03;11.40;;;8.73;;
46931;SDS011;32670;51.464;11.964;2022-09-13T06:43:31;14.37;;;8.93;;
46931;SDS011;32670;51.464;11.964;2022-09-13T06:46:04;13.17;;;9.90;;
46931;SDS011;32670;51.464;11.964;2022-09-13T06:48:32;10.70;;;8.73;;
46931;SDS011;32670;51.464;11.964;2022-09-13T06:50:59;11.97;;;10.17;;
46931;SDS011;32670;51.464;11.964;2022-09-13T06:53:27;13.40;;;10.40;;
46931;SDS011;32670;51.464;11.964;2022-09-13T06:58:32;13.20;;;11.17;;
46931;SDS011;32670;51.464;11.964;2022-09-13T07:01:10;13.13;;;11.70;;
46931;SDS011;32670;51.464;11.964;2022-09-13T07:03:39;12.97;;;11.77;;
46931;SDS011;32670;51.464;11.964;2022-09-13T07:06:11;17.50;;;12.37;;
46931;SDS011;32670;51.464;11.964;2022-09-13T07:08:44;14.80;;;13.20;;
46931;SDS011;32670;51.464;11.964;2022-09-13T07:11:11;16.03;;;14.27;;
46931;SDS011;32670;51.464;11.964;2022-09-13T07:13:39;16.40;;;14.70;;
46931;SDS011;32670;51.464;11.964;2022-09-13T07:16:05;16.20;;;14.33;;
46931;SDS011;32670;51.464;11.964;2022-09-13T07:18:32;16.30;;;14.77;;
46931;SDS011;32670;51.464;11.964;2022-09-13T07:20:59;17.03;;;15.27;;
46931;SDS011;32670;51.464;11.964;2022-09-13T07:23:30;17.40;;;15.60;;
46931;SDS011;32670;51.464;11.964;2022-09-13T07:25:56;16.90;;;15.07;;
46931;SDS011;32670;51.464;11.964;2022-09-13T07:28:27;17.27;;;15.60;;
46931;SDS011;32670;51.464;11.964;2022-09-13T07:30:55;17.57;;;15.87;;
46931;SDS011;32670;51.464;11.964;2022-09-13T07:33:22;18.53;;;16.73;;
46931;SDS011;32670;51.464;11.964;2022-09-13T07:35:53;18.47;;;16.57;;
46931;SDS011;32670;51.464;11.964;2022-09-13T07:38:20;19.00;;;17.20;;
46931;SDS011;32670;51.464;11.964;2022-09-13T07:40:51;20.27;;;18.10;;
46931;SDS011;32670;51.464;11.964;2022-09-13T07:43:18;19.30;;;17.40;;
46931;SDS011;32670;51.464;11.964;2022-09-13T07:45:44;19.00;;;17.00;;
46931;SDS011;32670;51.464;11.964;2022-09-13T07:48:09;19.63;;;17.77;;
46931;SDS011;32670;51.464;11.964;2022-09-13T07:50:35;18.83;;;16.93;;
46931;SDS011;32670;51.464;11.964;2022-09-13T07:53:00;19.53;;;17.57;;
46931;SDS011;32670;51.464;11.964;2022-09-13T07:55:25;20.73;;;18.77;;
46931;SDS011;32670;51.464;11.964;2022-09-13T07:57:51;20.87;;;18.67;;
46931;SDS011;32670;51.464;11.964;2022-09-13T08:00:16;20.80;;;18.60;;
46931;SDS011;32670;51.464;11.964;2022-09-13T08:02:42;20.80;;;18.77;;
46931;SDS011;32670;51.464;11.964;2022-09-13T08:05:07;21.33;;;19.23;;
46931;SDS011;32670;51.464;11.964;2022-09-13T08:07:33;21.27;;;19.17;;
46931;SDS011;32670;51.464;11.964;2022-09-13T08:09:58;23.00;;;20.77;;
46931;SDS011;32670;51.464;11.964;2022-09-13T08:12:24;21.47;;;19.30;;
46931;SDS011;32670;51.464;11.964;2022-09-13T08:14:49;23.37;;;21.03;;
46931;SDS011;32670;51.464;11.964;2022-09-13T08:17:15;23.70;;;21.50;;
46931;SDS011;32670;51.464;11.964;2022-09-13T08:19:40;22.03;;;19.93;;
46931;SDS011;32670;51.464;11.964;2022-09-13T08:22:06;23.90;;;21.60;;
46931;SDS011;32670;51.464;11.964;2022-09-13T08:24:31;24.00;;;21.50;;
46931;SDS011;32670;51.464;11.964;2022-09-13T08:26:57;23.93;;;21.70;;
46931;SDS011;32670;51.464;11.964;2022-09-13T08:29:22;23.73;;;21.33;;
46931;SDS011;32670;51.464;11.964;2022-09-13T08:31:49;23.80;;;21.37;;
46931;SDS011;32670;51.464;11.964;2022-09-13T08:34:14;23.80;;;21.60;;
46931;SDS011;32670;51.464;11.964;2022-09-13T08:36:40;22.50;;;20.37;;
46931;SDS011;32670;51.464;11.964;2022-09-13T08:39:07;23.93;;;21.63;;
46931;SDS011;32670;51.464;11.964;2022-09-13T08:44:09;24.47;;;22.17;;
46931;SDS011;32670;51.464;11.964;2022-09-13T08:46:47;25.47;;;22.80;;
46931;SDS011;32670;51.464;11.964;2022-09-13T08:49:18;25.83;;;23.30;;
46931;SDS011;32670;51.464;11.964;2022-09-13T08:51:48;25.67;;;23.17;;
46931;SDS011;32670;51.464;11.964;2022-09-13T08:54:17;28.57;;;25.70;;
46931;SDS011;32670;51.464;11.964;2022-09-13T08:56:51;26.90;;;24.10;;
46931;SDS011;32670;51.464;11.964;2022-09-13T08:59:47;28.07;;;25.27;;
46931;SDS011;32670;51.464;11.964;2022-09-13T09:05:25;27.23;;;24.50;;
46931;SDS011;32670;51.464;11.964;2022-09-13T09:07:56;28.03;;;25.27;;
46931;SDS011;32670;51.464;11.964;2022-09-13T09:10:39;34.77;;;31.37;;
46931;SDS011;32670;51.464;11.964;2022-09-13T09:13:11;32.77;;;29.43;;
46931;SDS011;32670;51.464;11.964;2022-09-13T09:15:46;43.53;;;39.00;;
46931;SDS011;32670;51.464;11.964;2022-09-13T09:20:51;39.30;;;35.43;;
46931;SDS011;32670;51.464;11.964;2022-09-13T09:23:22;34.63;;;31.23;;
46931;SDS011;32670;51.464;11.964;2022-09-13T09:26:36;39.00;;;35.00;;
46931;SDS011;32670;51.464;11.964;2022-09-13T09:28:40;35.13;;;31.37;;
46931;SDS011;32670;51.464;11.964;2022-09-13T09:31:19;36.20;;;32.40;;
46931;SDS011;32670;51.464;11.964;2022-09-13T09:34:05;39.37;;;35.40;;
46931;SDS011;32670;51.464;11.964;2022-09-13T09:36:43;45.50;;;40.63;;
46931;SDS011;32670;51.464;11.964;2022-09-13T09:39:14;41.63;;;37.33;;
46931;SDS011;32670;51.464;11.964;2022-09-13T09:41:40;43.30;;;39.03;;
46931;SDS011;32670;51.464;11.964;2022-09-13T09:46:45;39.83;;;35.70;;
46931;SDS011;32670;51.464;11.964;2022-09-13T09:52:14;41.23;;;36.97;;
46931;SDS011;32670;51.464;11.964;2022-09-13T09:54:42;49.77;;;44.83;;
46931;SDS011;32670;51.464;11.964;2022-09-13T09:57:10;37.70;;;33.77;;
46931;SDS011;32670;51.464;11.964;2022-09-13T09:59:37;41.93;;;37.40;;
46931;SDS011;32670;51.464;11.964;2022-09-13T10:02:12;45.67;;;41.17;;
46931;SDS011;32670;51.464;11.964;2022-09-13T10:04:40;44.83;;;40.13;;
46931;SDS011;32670;51.464;11.964;2022-09-13T10:07:08;46.07;;;41.07;;
46931;SDS011;32670;51.464;11.964;2022-09-13T10:09:35;42.30;;;37.93;;
46931;SDS011;32670;51.464;11.964;2022-09-13T10:12:03;45.13;;;40.47;;
46931;SDS011;32670;51.464;11.964;2022-09-13T10:17:15;43.00;;;38.40;;
46931;SDS011;32670;51.464;11.964;2022-09-13T10:19:50;45.07;;;40.53;;
46931;SDS011;32670;51.464;11.964;2022-09-13T10:22:23;43.53;;;39.17;;
46931;SDS011;32670;51.464;11.964;2022-09-13T10:24:50;40.43;;;36.10;;
46931;SDS011;32670;51.464;11.964;2022-09-13T10:27:34;39.50;;;35.37;;
46931;SDS011;32670;51.464;11.964;2022-09-13T10:30:03;39.20;;;35.20;;
46931;SDS011;32670;51.464;11.964;2022-09-13T10:32:30;38.80;;;35.03;;
46931;SDS011;32670;51.464;11.964;2022-09-13T10:34:59;40.70;;;36.70;;
46931;SDS011;32670;51.464;11.964;2022-09-13T10:37:31;46.57;;;41.87;;
46931;SDS011;32670;51.464;11.964;2022-09-13T10:40:01;47.40;;;42.27;;
46931;SDS011;32670;51.464;11.964;2022-09-13T10:42:56;40.07;;;36.10;;
46931;SDS011;32670;51.464;11.964;2022-09-13T10:45:23;45.50;;;40.97;;
46931;SDS011;32670;51.464;11.964;2022-09-13T10:47:51;44.07;;;39.67;;
46931;SDS011;32670;51.464;11.964;2022-09-13T10:50:27;42.47;;;38.13;;
46931;SDS011;32670;51.464;11.964;2022-09-13T10:52:55;39.47;;;35.37;;
46931;SDS011;32670;51.464;11.964;2022-09-13T10:55:24;45.50;;;40.93;;
46931;SDS011;32670;51.464;11.964;2022-09-13T11:00:32;45.67;;;40.90;;
46931;SDS011;32670;51.464;11.964;2022-09-13T11:03:12;41.80;;;37.60;;
46931;SDS011;32670;51.464;11.964;2022-09-13T11:05:54;42.60;;;38.30;;
46931;SDS011;32670;51.464;11.964;2022-09-13T11:11:35;44.87;;;40.27;;
46931;SDS011;32670;51.464;11.964;2022-09-13T11:14:28;39.77;;;35.77;;
46931;SDS011;32670;51.464;11.964;2022-09-13T11:20:08;52.50;;;47.17;;
46931;SDS011;32670;51.464;11.964;2022-09-13T11:22:58;44.60;;;40.33;;
46931;SDS011;32670;51.464;11.964;2022-09-13T11:25:52;53.83;;;48.40;;
46931;SDS011;32670;51.464;11.964;2022-09-13T11:28:40;49.53;;;44.73;;
46931;SDS011;32670;51.464;11.964;2022-09-13T11:34:37;47.60;;;42.70;;
46931;SDS011;32670;51.464;11.964;2022-09-13T11:37:25;55.47;;;49.97;;
46931;SDS011;32670;51.464;11.964;2022-09-13T11:39:58;51.00;;;45.77;;
46931;SDS011;32670;51.464;11.964;2022-09-13T11:42:51;48.83;;;44.03;;
46931;SDS011;32670;51.464;11.964;2022-09-13T11:45:34;48.33;;;43.43;;
46931;SDS011;32670;51.464;11.964;2022-09-13T11:48:20;50.13;;;45.23;;
46931;SDS011;32670;51.464;11.964;2022-09-13T11:51:25;43.20;;;38.87;;
46931;SDS011;32670;51.464;11.964;2022-09-13T11:57:05;42.30;;;38.23;;
46931;SDS011;32670;51.464;11.964;2022-09-13T11:59:42;49.33;;;44.43;;
46931;SDS011;32670;51.464;11.964;2022-09-13T12:05:20;56.17;;;50.40;;
46931;SDS011;32670;51.464;11.964;2022-09-13T12:07:50;49.97;;;44.90;;
46931;SDS011;32670;51.464;11.964;2022-09-13T12:10:25;45.13;;;40.43;;
46931;SDS011;32670;51.464;11.964;2022-09-13T12:12:54;43.43;;;39.03;;
46931;SDS011;32670;51.464;11.964;2022-09-13T12:18:13;43.53;;;39.23;;
46931;SDS011;32670;51.464;11.964;2022-09-13T12:20:46;47.07;;;42.33;;
46931;SDS011;32670;51.464;11.964;2022-09-13T12:23:26;48.00;;;43.00;;
46931;SDS011;32670;51.464;11.964;2022-09-13T12:26:18;46.20;;;41.50;;
46931;SDS011;32670;51.464;11.964;2022-09-13T12:28:55;48.77;;;43.80;;
46931;SDS011;32670;51.464;11.964;2022-09-13T12:31:27;57.23;;;50.10;;
46931;SDS011;32670;51.464;11.964;2022-09-13T12:33:54;51.00;;;45.67;;
46931;SDS011;32670;51.464;11.964;2022-09-13T12:36:31;49.33;;;44.43;;
46931;SDS011;32670;51.464;11.964;2022-09-13T12:42:13;52.20;;;46.80;;
46931;SDS011;32670;51.464;11.964;2022-09-13T12:47:54;41.83;;;37.73;;
46931;SDS011;32670;51.464;11.964;2022-09-13T13:02:41;36.90;;;33.17;;
46931;SDS011;32670;51.464;11.964;2022-09-13T13:05:18;35.67;;;31.97;;
46931;SDS011;32670;51.464;11.964;2022-09-13T13:07:50;37.47;;;33.57;;
46931;SDS011;32670;51.464;11.964;2022-09-13T13:10:25;35.07;;;31.57;;
46931;SDS011;32670;51.464;11.964;2022-09-13T13:13:09;36.03;;;32.50;;
46931;SDS011;32670;51.464;11.964;2022-09-13T13:15:55;37.57;;;33.80;;
46931;SDS011;32670;51.464;11.964;2022-09-13T13:18:23;42.50;;;38.07;;
46931;SDS011;32670;51.464;11.964;2022-09-13T13:23:26;37.30;;;33.60;;
46931;SDS011;32670;51.464;11.964;2022-09-13T13:29:17;45.10;;;35.23;;
46931;SDS011;32670;51.464;11.964;2022-09-13T13:34:43;38.47;;;34.63;;
46931;SDS011;32670;51.464;11.964;2022-09-13T13:39:40;39.10;;;35.13;;
46931;SDS011;32670;51.464;11.964;2022-09-13T13:42:22;37.90;;;34.17;;
46931;SDS011;32670;51.464;11.964;2022-09-13T13:44:55;42.70;;;38.37;;
46931;SDS011;32670;51.464;11.964;2022-09-13T13:52:38;46.43;;;41.77;;
46931;SDS011;32670;51.464;11.964;2022-09-13T13:55:30;39.63;;;35.73;;
46931;SDS011;32670;51.464;11.964;2022-09-13T14:01:01;46.13;;;41.77;;
46931;SDS011;32670;51.464;11.964;2022-09-13T14:06:18;42.33;;;37.97;;
46931;SDS011;32670;51.464;11.964;2022-09-13T14:09:01;46.93;;;42.00;;
46931;SDS011;32670;51.464;11.964;2022-09-13T14:11:41;46.40;;;41.60;;
46931;SDS011;32670;51.464;11.964;2022-09-13T14:20:14;42.40;;;38.10;;
46931;SDS011;32670;51.464;11.964;2022-09-13T14:22:42;40.00;;;36.00;;
46931;SDS011;32670;51.464;11.964;2022-09-13T14:25:12;35.13;;;31.43;;
46931;SDS011;32670;51.464;11.964;2022-09-13T14:27:45;33.30;;;30.00;;
46931;SDS011;32670;51.464;11.964;2022-09-13T14:30:19;28.70;;;26.00;;
46931;SDS011;32670;51.464;11.964;2022-09-13T14:32:48;28.90;;;26.20;;
46931;SDS011;32670;51.464;11.964;2022-09-13T14:35:23;28.90;;;26.10;;
46931;SDS011;32670;51.464;11.964;2022-09-13T14:37:54;27.70;;;25.20;;
46931;SDS011;32670;51.464;11.964;2022-09-13T14:40:32;29.67;;;26.80;;
46931;SDS011;32670;51.464;11.964;2022-09-13T14:42:58;26.27;;;23.67;;
46931;SDS011;32670;51.464;11.964;2022-09-13T14:45:27;29.13;;;26.23;;
46931;SDS011;32670;51.464;11.964;2022-09-13T14:48:05;31.77;;;28.63;;
46931;SDS011;32670;51.464;11.964;2022-09-13T14:50:44;37.33;;;33.37;;
46931;SDS011;32670;51.464;11.964;2022-09-13T14:53:35;32.50;;;29.10;;
46931;SDS011;32670;51.464;11.964;2022-09-13T14:56:06;30.97;;;27.87;;
46931;SDS011;32670;51.464;11.964;2022-09-13T14:58:57;33.73;;;30.37;;
46931;SDS011;32670;51.464;11.964;2022-09-13T15:01:27;30.47;;;27.33;;
46931;SDS011;32670;51.464;11.964;2022-09-13T15:03:55;34.37;;;30.00;;
46931;SDS011;32670;51.464;11.964;2022-09-13T15:06:30;33.30;;;29.90;;
46931;SDS011;32670;51.464;11.964;2022-09-13T15:11:36;35.17;;;31.43;;
46931;SDS011;32670;51.464;11.964;2022-09-13T15:17:13;30.13;;;27.03;;
46931;SDS011;32670;51.464;11.964;2022-09-13T15:19:40;32.30;;;28.93;;
46931;SDS011;32670;51.464;11.964;2022-09-13T15:24:56;36.60;;;33.07;;
46931;SDS011;32670;51.464;11.964;2022-09-13T15:27:24;39.83;;;35.73;;
46931;SDS011;32670;51.464;11.964;2022-09-13T15:29:56;39.47;;;35.33;;
46931;SDS011;32670;51.464;11.964;2022-09-13T15:32:40;48.33;;;43.13;;
46931;SDS011;32670;51.464;11.964;2022-09-13T15:35:23;44.43;;;40.13;;
46931;SDS011;32670;51.464;11.964;2022-09-13T15:37:57;36.47;;;32.93;;
46931;SDS011;32670;51.464;11.964;2022-09-13T15:40:25;34.20;;;30.70;;
46931;SDS011;32670;51.464;11.964;2022-09-13T15:42:53;39.13;;;35.33;;
46931;SDS011;32670;51.464;11.964;2022-09-13T15:45:19;36.00;;;32.40;;
46931;SDS011;32670;51.464;11.964;2022-09-13T15:47:46;33.57;;;30.17;;
46931;SDS011;32670;51.464;11.964;2022-09-13T15:50:23;40.80;;;36.67;;
46931;SDS011;32670;51.464;11.964;2022-09-13T15:52:52;34.30;;;30.97;;
46931;SDS011;32670;51.464;11.964;2022-09-13T15:55:19;36.03;;;32.23;;
46931;SDS011;32670;51.464;11.964;2022-09-13T15:57:45;32.47;;;29.10;;
46931;SDS011;32670;51.464;11.964;2022-09-13T16:00:17;34.87;;;31.40;;
46931;SDS011;32670;51.464;11.964;2022-09-13T16:02:49;29.70;;;26.87;;
46931;SDS011;32670;51.464;11.964;2022-09-13T16:05:15;36.37;;;32.63;;
46931;SDS011;32670;51.464;11.964;2022-09-13T16:07:41;33.00;;;29.60;;
46931;SDS011;32670;51.464;11.964;2022-09-13T16:10:13;30.43;;;27.53;;
46931;SDS011;32670;51.464;11.964;2022-09-13T16:12:41;31.03;;;28.20;;
46931;SDS011;32670;51.464;11.964;2022-09-13T16:15:07;36.10;;;32.57;;
46931;SDS011;32670;51.464;11.964;2022-09-13T16:17:33;32.83;;;29.53;;
46931;SDS011;32670;51.464;11.964;2022-09-13T16:20:00;31.60;;;28.50;;
46931;SDS011;32670;51.464;11.964;2022-09-13T16:22:31;28.87;;;25.97;;
46931;SDS011;32670;51.464;11.964;2022-09-13T16:24:57;33.93;;;30.77;;
46931;SDS011;32670;51.464;11.964;2022-09-13T16:27:23;35.40;;;31.87;;
46931;SDS011;32670;51.464;11.964;2022-09-13T16:29:50;40.23;;;36.17;;
46931;SDS011;32670;51.464;11.964;2022-09-13T16:32:16;40.67;;;36.57;;
46931;SDS011;32670;51.464;11.964;2022-09-13T16:34:42;35.03;;;31.53;;
46931;SDS011;32670;51.464;11.964;2022-09-13T16:37:08;32.27;;;29.27;;
46931;SDS011;32670;51.464;11.964;2022-09-13T16:39:38;32.63;;;29.13;;
46931;SDS011;32670;51.464;11.964;2022-09-13T16:42:04;31.07;;;27.97;;
46931;SDS011;32670;51.464;11.964;2022-09-13T16:44:31;30.70;;;27.60;;
46931;SDS011;32670;51.464;11.964;2022-09-13T16:46:56;36.27;;;32.87;;